Pote, Brazil
Current Conditions -  °F | °C
As of 1:00 PM on Thursday 30 Oct 2014 (Local Time) from SBIP Reporting Station
Broken Clouds Broken Clouds  
Wind Chill: 79°   Ceiling: 2500
Heat Index: 81°   Visibility: 6mi
Dew Point: 66°   Wind: 8mph
Humidity: 65%   Direction: 30°NNE
Pressure: 29.94"   Gusts: NA
Location:  17.81°S, 41.79°W
Report Text: SBIP 301500Z 03007KT 9999 BKN025 26/19 Q1014
Loading
Personal Weather Stations






























Interactive Weather Map
Tropical Storm Tracking
New forecast layout! Learn more

10-Day Weather Forecast

Advertisements
Track Severe Weather on mobile